Time;durP1;ratioP1;P1;durP2;ratioP2;P2;SDS_P1;SDS_P2;PMS_P1;PMS_P2;Temp;Humidity;BMP_temperature;BMP_pressure;BME280_temperature;BME280_humidity;BME280_pressure;Samples;Min_cycle;Max_cycle;Signal;HPM_P1;HPM_P2
2023/08/20 00:01:25;;;;;;;11.98;2.55;;;;;;;16.72;87.46;100642.09;5051171;28;20102;-45
2023/08/20 00:03:53;;;;;;;8.40;1.80;;;;;;;16.71;87.53;100637.69;5025103;28;20056;-44
2023/08/20 00:06:21;;;;;;;9.10;1.90;;;;;;;16.69;87.60;100640.06;5050911;28;20098;-42
2023/08/20 00:08:48;;;;;;;5.97;1.58;;;;;;;16.68;87.63;100640.47;5045159;28;20510;-42
2023/08/20 00:11:15;;;;;;;6.07;1.92;;;;;;;16.68;87.66;100644.06;5050780;28;20041;-44
2023/08/20 00:13:43;;;;;;;8.95;2.42;;;;;;;16.67;87.69;100645.25;5050410;28;20096;-42
2023/08/20 00:16:10;;;;;;;7.82;2.45;;;;;;;16.64;87.93;100653.59;5047334;28;20052;-42
2023/08/20 00:18:38;;;;;;;11.35;2.28;;;;;;;16.61;88.01;100659.97;5047624;28;20103;-46
2023/08/20 00:21:06;;;;;;;12.32;2.67;;;;;;;16.58;88.20;100661.56;5048432;28;20041;-42
2023/08/20 00:23:34;;;;;;;10.35;1.95;;;;;;;16.56;88.47;100674.31;5045555;28;20045;-42
2023/08/20 00:26:02;;;;;;;12.70;2.40;;;;;;;16.55;88.52;100675.53;5031765;28;20132;-46
2023/08/20 00:28:29;;;;;;;12.80;2.83;;;;;;;16.52;88.47;100663.06;5047243;28;20044;-45
2023/08/20 00:30:56;;;;;;;9.05;2.05;;;;;;;16.51;88.64;100671.84;5050355;28;20049;-46
2023/08/20 00:33:23;;;;;;;10.05;1.90;;;;;;;16.51;88.75;100683.03;5050732;28;20375;-44
2023/08/20 00:35:50;;;;;;;11.40;2.60;;;;;;;16.50;88.71;100670.22;5054799;28;20424;-44
2023/08/20 00:38:17;;;;;;;11.95;2.13;;;;;;;16.48;88.84;100681.00;5050616;28;20049;-42
2023/08/20 00:40:44;;;;;;;8.82;1.85;;;;;;;16.46;89.02;100673.00;5050350;28;20124;-42
2023/08/20 00:43:12;;;;;;;14.00;2.55;;;;;;;16.43;89.12;100666.22;5050398;28;20136;-44
2023/08/20 00:45:41;;;;;;;16.15;3.90;;;;;;;16.39;89.21;100665.34;5031928;28;20139;-46
2023/08/20 00:48:09;;;;;;;11.65;2.78;;;;;;;16.38;89.27;100669.38;5050843;28;20052;-45
2023/08/20 00:50:36;;;;;;;6.78;1.90;;;;;;;16.36;89.23;100674.50;5049752;28;20127;-44
2023/08/20 00:53:05;;;;;;;10.35;2.50;;;;;;;16.34;89.37;100682.47;5032961;28;20465;-46
2023/08/20 00:55:32;;;;;;;8.82;2.10;;;;;;;16.35;89.31;100689.69;5050326;28;20044;-44
2023/08/20 00:58:00;;;;;;;9.38;2.40;;;;;;;16.34;89.40;100688.06;5049274;28;20080;-49
2023/08/20 01:00:27;;;;;;;10.00;2.33;;;;;;;16.33;89.58;100692.06;5047046;28;20049;-45
2023/08/20 01:02:54;;;;;;;15.20;2.47;;;;;;;16.33;89.55;100694.06;5050252;28;20136;-44
2023/08/20 01:05:21;;;;;;;15.88;2.67;;;;;;;16.29;89.67;100702.41;5053592;28;20095;-42
2023/08/20 01:08:15;;;;;;;12.85;2.17;;;;;;;16.28;89.85;100692.41;5054205;28;20068;-42
2023/08/20 01:11:05;;;;;;;11.93;2.20;;;;;;;16.28;89.76;100691.63;5052599;28;20041;-44
2023/08/20 01:13:32;;;;;;;11.82;2.35;;;;;;;16.26;89.78;100705.94;5053623;28;20044;-44
2023/08/20 01:15:58;;;;;;;12.25;2.22;;;;;;;16.23;90.05;100701.13;5053964;28;20037;-45
2023/08/20 01:18:25;;;;;;;13.60;3.25;;;;;;;16.21;90.17;100706.31;5052786;28;20045;-42
2023/08/20 01:21:02;;;;;;;12.95;3.72;;;;;;;16.20;90.21;100710.28;5053951;28;20056;-44
2023/08/20 01:23:37;;;;;;;12.02;2.50;;;;;;;16.17;90.46;100707.47;5053420;28;20037;-44
2023/08/20 01:26:42;;;;;;;7.70;1.92;;;;;;;16.14;90.54;100703.44;5054017;28;20041;-45
2023/08/20 01:29:11;;;;;;;7.18;1.73;;;;;;;16.13;90.53;100710.22;5053726;28;20116;-44
2023/08/20 01:31:39;;;;;;;8.55;1.92;;;;;;;16.12;90.43;100710.59;5053382;28;20098;-44
2023/08/20 01:34:06;;;;;;;3.78;1.30;;;;;;;16.10;90.81;100705.38;5053349;28;20131;-45
2023/08/20 01:36:32;;;;;;;8.32;1.85;;;;;;;16.08;90.88;100707.78;5053496;28;20390;-45
2023/08/20 01:38:59;;;;;;;6.13;1.70;;;;;;;16.06;91.10;100706.53;5035105;28;20052;-44
2023/08/20 01:41:26;;;;;;;11.77;2.70;;;;;;;16.03;91.01;100713.69;5047289;28;20091;-44
2023/08/20 01:43:53;;;;;;;9.82;2.35;;;;;;;16.01;91.29;100713.28;5057644;28;20044;-44
2023/08/20 01:46:19;;;;;;;9.95;1.73;;;;;;;16.00;91.32;100714.47;5052581;28;20048;-44
2023/08/20 01:48:46;;;;;;;7.97;1.40;;;;;;;15.98;91.29;100719.63;5053200;28;20405;-44
2023/08/20 01:51:13;;;;;;;12.90;1.92;;;;;;;15.97;91.48;100715.22;5053267;28;20048;-45
2023/08/20 01:53:40;;;;;;;5.30;1.50;;;;;;;15.95;91.16;100717.59;5035491;28;20098;-46
2023/08/20 01:56:13;;;;;;;9.73;1.98;;;;;;;15.95;91.58;100723.19;5052820;28;20139;-44
2023/08/20 01:58:40;;;;;;;10.30;1.98;;;;;;;15.96;91.54;100727.59;5054502;28;20044;-45
2023/08/20 02:01:07;;;;;;;5.60;2.53;;;;;;;15.93;91.55;100722.78;5051522;28;20083;-45
2023/08/20 02:03:36;;;;;;;9.52;1.85;;;;;;;15.94;91.62;100727.16;5042098;28;20479;-44
2023/08/20 02:06:02;;;;;;;8.05;2.65;;;;;;;15.95;91.58;100734.34;5051325;28;20037;-44
2023/08/20 02:08:29;;;;;;;12.23;2.50;;;;;;;15.94;91.61;100737.53;5050620;28;20045;-44
2023/08/20 02:11:01;;;;;;;8.77;1.48;;;;;;;15.95;91.65;100739.13;5050728;28;20514;-45
2023/08/20 02:13:28;;;;;;;4.45;1.23;;;;;;;15.92;91.81;100729.53;5048124;28;20048;-44
2023/08/20 02:16:02;;;;;;;5.93;1.50;;;;;;;15.92;91.64;100749.06;5050572;28;20045;-44
2023/08/20 02:18:30;;;;;;;4.28;1.73;;;;;;;15.88;91.85;100742.66;5049115;28;20124;-46
2023/08/20 02:20:57;;;;;;;7.65;1.83;;;;;;;15.87;92.02;100743.84;5050341;28;20048;-44
2023/08/20 02:23:23;;;;;;;9.88;2.15;;;;;;;15.86;92.05;100741.44;5048859;28;20564;-44
2023/08/20 02:25:50;;;;;;;10.27;2.50;;;;;;;15.85;92.22;100746.22;5050668;28;20104;-44
2023/08/20 02:28:17;;;;;;;8.60;1.67;;;;;;;15.84;92.17;100750.19;5047993;28;20059;-45
2023/08/20 02:30:46;;;;;;;7.85;1.50;;;;;;;15.82;92.36;100746.97;5052153;28;20065;-45
2023/08/20 02:33:13;;;;;;;10.48;2.80;;;;;;;15.79;92.40;100751.31;5057995;28;20463;-44
2023/08/20 02:35:41;;;;;;;6.25;1.48;;;;;;;15.77;92.74;100750.09;5052432;28;20040;-44
2023/08/20 02:38:09;;;;;;;5.15;1.85;;;;;;;15.77;92.66;100766.84;5034719;28;20057;-44
2023/08/20 02:40:41;;;;;;;11.68;2.10;;;;;;;15.73;92.65;100765.97;5052117;28;20045;-44
2023/08/20 02:43:09;;;;;;;5.45;1.55;;;;;;;15.69;92.51;100770.72;5052286;28;20041;-44
2023/08/20 02:45:42;;;;;;;3.08;1.38;;;;;;;15.67;92.60;100767.53;5050103;28;20045;-45
2023/08/20 02:48:10;;;;;;;5.55;1.58;;;;;;;15.63;92.85;100767.47;5051327;28;20045;-45
2023/08/20 02:50:37;;;;;;;6.03;2.00;;;;;;;15.64;92.85;100773.84;5052503;28;20107;-45
2023/08/20 02:53:04;;;;;;;11.35;1.90;;;;;;;15.65;92.77;100767.06;5034655;28;20055;-45
2023/08/20 02:55:31;;;;;;;4.25;1.33;;;;;;;15.65;92.66;100772.66;5049932;28;20048;-44
2023/08/20 02:57:59;;;;;;;5.72;2.47;;;;;;;15.64;92.59;100762.69;5047447;28;20049;-44
2023/08/20 03:02:54;;;;;;;7.25;2.08;;;;;;;15.63;92.55;100766.66;5011422;22;20270;-42
2023/08/20 03:05:21;;;;;;;8.05;2.08;;;;;;;15.62;92.74;100773.44;5009686;28;20042;-42
2023/08/20 03:07:48;;;;;;;9.30;1.73;;;;;;;15.62;92.80;100767.84;5001907;28;20112;-42
2023/08/20 03:10:17;;;;;;;4.50;1.00;;;;;;;15.63;92.92;100769.44;5008911;28;20060;-41
2023/08/20 03:12:44;;;;;;;12.40;2.00;;;;;;;15.61;92.98;100785.78;5008024;28;20069;-42
2023/08/20 03:15:11;;;;;;;11.80;1.70;;;;;;;15.62;93.08;100787.38;5009231;28;20045;-43
2023/08/20 03:17:38;;;;;;;7.93;1.70;;;;;;;15.62;93.10;100784.59;5003147;28;20495;-42
2023/08/20 03:20:06;;;;;;;4.93;1.50;;;;;;;15.62;93.09;100777.00;5011683;28;20046;-43
2023/08/20 03:22:33;;;;;;;4.85;1.45;;;;;;;15.65;93.16;100781.03;5009697;28;20050;-42
2023/08/20 03:25:00;;;;;;;7.50;2.38;;;;;;;15.63;93.32;100783.41;5009807;28;20042;-42
2023/08/20 03:27:27;;;;;;;7.63;1.42;;;;;;;15.63;93.20;100787.00;5010469;28;20129;-41
2023/08/20 03:29:53;;;;;;;8.30;1.85;;;;;;;15.63;93.23;100789.78;5009784;28;20330;-42
2023/08/20 03:32:20;;;;;;;5.22;1.70;;;;;;;15.62;93.04;100784.59;5008090;28;20048;-42
2023/08/20 03:34:47;;;;;;;6.63;2.08;;;;;;;15.60;93.29;100786.94;5009864;28;20500;-41
2023/08/20 03:37:14;;;;;;;5.72;1.48;;;;;;;15.60;93.31;100784.97;5009828;28;20050;-42
2023/08/20 03:39:41;;;;;;;9.30;2.22;;;;;;;15.60;93.31;100790.53;5008134;28;20050;-42
2023/08/20 03:42:08;;;;;;;7.68;1.85;;;;;;;15.58;93.36;100778.16;5008071;28;20046;-42
2023/08/20 03:44:35;;;;;;;11.18;1.70;;;;;;;15.56;93.32;100780.53;5009942;28;20056;-42
2023/08/20 03:47:02;;;;;;;8.77;1.52;;;;;;;15.55;93.45;100788.09;5009645;28;20061;-43
2023/08/20 03:49:29;;;;;;;8.52;1.67;;;;;;;15.55;93.34;100781.69;5009560;28;20048;-41
2023/08/20 03:51:56;;;;;;;7.20;1.70;;;;;;;15.54;93.31;100791.25;5010564;28;20061;-41
2023/08/20 03:54:22;;;;;;;6.55;1.40;;;;;;;15.53;93.28;100784.06;5009581;28;20084;-46
2023/08/20 03:56:50;;;;;;;12.27;3.00;;;;;;;15.52;93.29;100791.63;5011726;28;20103;-42
2023/08/20 03:59:17;;;;;;;7.40;1.30;;;;;;;15.52;93.53;100791.63;5009968;28;20073;-41
2023/08/20 04:01:43;;;;;;;10.85;1.75;;;;;;;15.54;93.53;100794.06;5008990;28;20277;-42
2023/08/20 04:04:10;;;;;;;5.45;1.38;;;;;;;15.56;93.47;100794.47;5010069;28;20045;-42
2023/08/20 04:06:37;;;;;;;4.13;1.33;;;;;;;15.56;93.36;100794.47;5010456;28;21716;-41
2023/08/20 04:09:05;;;;;;;8.68;2.42;;;;;;;15.57;93.40;100791.28;5011202;28;20451;-41
2023/08/20 04:11:31;;;;;;;4.65;1.45;;;;;;;15.58;93.47;100792.09;4997431;28;20116;-42
2023/08/20 04:14:01;;;;;;;8.10;2.40;;;;;;;15.57;93.17;100802.47;5011237;28;20065;-42
2023/08/20 04:16:29;;;;;;;9.50;1.35;;;;;;;15.58;93.25;100808.84;4992638;28;20050;-41
2023/08/20 04:18:56;;;;;;;4.68;1.58;;;;;;;15.57;93.35;100812.81;5010079;28;20573;-42
2023/08/20 04:21:23;;;;;;;5.47;1.10;;;;;;;15.57;93.42;100807.22;5007733;28;20042;-45
2023/08/20 04:23:49;;;;;;;5.57;1.52;;;;;;;15.59;93.38;100810.47;5008717;28;20058;-42
2023/08/20 04:26:16;;;;;;;13.43;2.40;;;;;;;15.60;93.46;100812.06;5009923;28;20045;-42
2023/08/20 04:28:43;;;;;;;8.52;1.13;;;;;;;15.62;93.41;100810.50;5009429;28;20045;-41
2023/08/20 04:31:11;;;;;;;4.93;1.00;;;;;;;15.66;93.46;100805.78;5006860;28;20072;-42
2023/08/20 04:33:38;;;;;;;4.95;1.35;;;;;;;15.69;93.51;100807.00;4997733;28;20041;-42
2023/08/20 04:36:05;;;;;;;4.55;1.27;;;;;;;15.71;93.29;100808.25;5012856;28;20046;-42
2023/08/20 04:38:31;;;;;;;6.57;1.40;;;;;;;15.73;93.28;100810.66;5013480;28;20142;-41
2023/08/20 04:40:59;;;;;;;8.13;1.30;;;;;;;15.76;93.42;100821.06;5012105;28;20061;-42
2023/08/20 04:43:26;;;;;;;6.70;2.50;;;;;;;15.76;93.30;100809.88;5012478;28;20069;-42
2023/08/20 04:45:53;;;;;;;7.60;1.23;;;;;;;15.77;93.37;100817.09;5012816;28;20127;-42
2023/08/20 04:48:20;;;;;;;7.20;1.20;;;;;;;15.77;93.11;100811.50;5013605;28;20541;-42
2023/08/20 04:50:47;;;;;;;9.55;1.67;;;;;;;15.79;93.14;100823.09;5011431;28;20113;-42
2023/08/20 04:53:14;;;;;;;5.90;1.08;;;;;;;15.81;92.94;100829.09;5013280;28;20100;-42
2023/08/20 04:55:40;;;;;;;3.47;1.20;;;;;;;15.82;92.81;100825.13;5012353;28;20547;-42
2023/08/20 04:58:07;;;;;;;5.95;1.38;;;;;;;15.83;92.77;100832.34;5003037;28;20046;-42
2023/08/20 05:00:34;;;;;;;8.07;1.25;;;;;;;15.83;92.77;100823.97;5012155;28;20081;-42
2023/08/20 05:03:01;;;;;;;7.63;1.20;;;;;;;15.82;92.68;100825.13;5008112;28;20527;-42
2023/08/20 05:05:28;;;;;;;4.53;1.20;;;;;;;15.80;92.56;100828.31;5014168;28;20099;-41
2023/08/20 05:07:54;;;;;;;8.77;1.50;;;;;;;15.80;92.79;100831.13;5012620;28;20407;-42
2023/08/20 05:10:21;;;;;;;5.00;1.20;;;;;;;15.80;92.71;100831.13;5011999;28;20574;-42
2023/08/20 05:12:48;;;;;;;4.97;1.15;;;;;;;15.80;92.83;100827.50;5011106;28;20046;-42
2023/08/20 05:15:15;;;;;;;11.18;1.52;;;;;;;15.77;92.98;100834.66;5013372;28;20140;-42
2023/08/20 05:17:42;;;;;;;3.65;1.23;;;;;;;15.73;92.79;100821.81;5013344;28;20109;-41
2023/08/20 05:20:09;;;;;;;8.45;1.33;;;;;;;15.69;92.86;100829.34;5013977;28;20129;-42
2023/08/20 05:22:36;;;;;;;10.35;1.83;;;;;;;15.68;93.12;100844.47;5013481;28;20045;-42
2023/08/20 05:25:03;;;;;;;6.53;1.25;;;;;;;15.68;93.16;100834.13;5010913;28;20045;-45
2023/08/20 05:27:30;;;;;;;3.88;1.20;;;;;;;15.71;93.07;100829.75;5012711;28;20042;-43
2023/08/20 05:29:57;;;;;;;3.78;1.30;;;;;;;15.73;93.17;100839.38;5012006;28;20054;-41
2023/08/20 05:32:23;;;;;;;3.80;1.15;;;;;;;15.75;93.44;100839.00;5011562;28;20133;-41
2023/08/20 05:34:50;;;;;;;3.72;0.95;;;;;;;15.79;93.23;100862.19;5012237;28;20061;-41
2023/08/20 05:37:17;;;;;;;7.00;1.33;;;;;;;15.80;93.52;100855.44;5011791;28;20133;-43
2023/08/20 05:39:44;;;;;;;9.68;1.30;;;;;;;15.78;93.67;100853.00;5012517;28;20053;-46
2023/08/20 05:42:11;;;;;;;8.00;1.23;;;;;;;15.80;93.65;100856.25;5013085;28;20084;-42
2023/08/20 05:44:38;;;;;;;8.35;1.25;;;;;;;15.81;93.50;100857.00;5013531;28;20045;-42
2023/08/20 05:47:05;;;;;;;2.15;0.85;;;;;;;15.82;93.60;100855.84;5013378;28;20412;-42
2023/08/20 05:49:32;;;;;;;9.35;1.48;;;;;;;15.83;93.76;100858.25;5013560;28;20042;-41
2023/08/20 05:51:59;;;;;;;6.50;1.33;;;;;;;15.86;93.80;100847.53;5013468;28;20053;-42
2023/08/20 05:54:25;;;;;;;5.22;2.00;;;;;;;15.88;93.61;100856.31;5013442;28;20054;-42
2023/08/20 05:56:52;;;;;;;8.20;1.23;;;;;;;15.89;93.58;100852.34;5013985;28;20065;-42
2023/08/20 05:59:19;;;;;;;3.53;0.98;;;;;;;15.92;93.52;100852.38;5009586;28;20056;-42
2023/08/20 06:01:46;;;;;;;4.72;1.10;;;;;;;15.94;93.40;100852.81;5013003;28;20056;-42
2023/08/20 06:04:13;;;;;;;4.88;1.40;;;;;;;15.97;93.14;100859.63;5013385;28;20527;-42
2023/08/20 06:06:40;;;;;;;8.13;1.73;;;;;;;16.04;93.13;100870.91;4995634;28;20104;-42
2023/08/20 06:09:07;;;;;;;5.65;1.95;;;;;;;16.10;93.08;100869.38;5013464;28;20038;-42
2023/08/20 06:11:36;;;;;;;8.73;1.35;;;;;;;16.17;92.98;100875.88;5011802;28;20054;-42
2023/08/20 06:14:03;;;;;;;5.63;1.60;;;;;;;16.25;92.90;100871.19;5016309;28;20042;-42
2023/08/20 06:16:29;;;;;;;3.80;1.05;;;;;;;16.31;92.44;100875.22;5014346;28;20050;-42
2023/08/20 06:18:58;;;;;;;6.55;1.55;;;;;;;16.36;92.52;100867.31;5012155;28;20096;-41
2023/08/20 06:21:28;;;;;;;8.80;1.65;;;;;;;16.42;92.55;100871.38;5010316;28;20034;-42
2023/08/20 06:23:55;;;;;;;3.53;0.88;;;;;;;16.44;92.29;100873.81;5010101;28;20073;-42
2023/08/20 06:26:22;;;;;;;6.07;1.00;;;;;;;16.50;92.34;100877.03;5011890;28;20050;-42
2023/08/20 06:28:49;;;;;;;4.40;1.38;;;;;;;16.52;92.27;100874.69;5008478;28;20050;-41
2023/08/20 06:31:15;;;;;;;2.63;1.00;;;;;;;16.54;92.19;100880.72;5014644;28;20100;-42
2023/08/20 06:33:43;;;;;;;9.20;1.60;;;;;;;16.54;92.08;100875.13;5009163;28;20476;-42
2023/08/20 06:36:10;;;;;;;6.20;1.88;;;;;;;16.56;91.74;100887.53;5011350;28;20046;-44
2023/08/20 06:38:36;;;;;;;4.00;0.90;;;;;;;16.59;91.77;100888.78;5011097;28;20041;-42
2023/08/20 06:41:03;;;;;;;4.85;1.33;;;;;;;16.62;91.70;100888.81;5011349;28;20078;-42
2023/08/20 06:43:30;;;;;;;5.97;1.20;;;;;;;16.65;91.55;100888.06;5010886;28;20049;-42
2023/08/20 06:45:57;;;;;;;9.48;1.27;;;;;;;16.66;91.19;100883.25;5008734;28;20046;-42
2023/08/20 06:48:24;;;;;;;3.35;1.42;;;;;;;16.70;91.43;100892.50;5010710;28;20500;-42
2023/08/20 06:50:51;;;;;;;11.40;1.63;;;;;;;16.73;91.08;100892.50;5009267;28;20057;-42
2023/08/20 06:53:18;;;;;;;14.23;1.30;;;;;;;16.80;91.26;100903.78;5011634;28;20502;-42
2023/08/20 06:55:45;;;;;;;9.20;1.40;;;;;;;16.87;91.09;100909.44;5010563;28;20049;-43
2023/08/20 06:58:11;;;;;;;14.07;3.75;;;;;;;16.97;90.96;100891.19;5009799;28;20100;-42
2023/08/20 07:00:38;;;;;;;7.10;1.30;;;;;;;17.08;90.95;100902.47;5008910;28;20050;-44
2023/08/20 07:03:05;;;;;;;5.50;1.60;;;;;;;17.15;90.36;100902.53;5009234;28;20050;-43
2023/08/20 07:05:32;;;;;;;8.93;1.10;;;;;;;17.27;90.32;100905.84;5002842;28;20050;-42
2023/08/20 07:07:59;;;;;;;10.35;2.00;;;;;;;17.38;90.13;100901.13;5011274;28;20046;-42
2023/08/20 07:10:26;;;;;;;6.43;2.30;;;;;;;17.49;89.51;100906.81;5009664;28;20041;-43
2023/08/20 07:12:52;;;;;;;9.18;1.80;;;;;;;17.56;89.23;100902.09;5010416;28;20133;-44
2023/08/20 07:15:19;;;;;;;9.40;1.45;;;;;;;17.63;88.98;100904.94;5010366;28;20056;-42
2023/08/20 07:17:46;;;;;;;11.27;1.20;;;;;;;17.70;88.74;100909.00;5008039;28;20601;-43
2023/08/20 07:20:13;;;;;;;4.95;1.45;;;;;;;17.75;88.49;100908.63;5010354;28;20049;-42
2023/08/20 07:22:42;;;;;;;11.88;1.70;;;;;;;17.78;88.57;100919.06;5008478;28;20054;-42
2023/08/20 07:25:08;;;;;;;8.20;2.20;;;;;;;17.78;88.61;100919.06;5010298;28;20153;-45
2023/08/20 07:27:35;;;;;;;11.80;1.40;;;;;;;17.77;88.37;100917.44;5008171;28;21006;-42
2023/08/20 07:30:03;;;;;;;6.10;1.55;;;;;;;17.78;88.01;100919.06;5011404;28;20125;-42
2023/08/20 07:32:29;;;;;;;6.90;1.45;;;;;;;17.79;87.86;100929.06;5011718;28;20041;-42
2023/08/20 07:34:56;;;;;;;6.40;1.40;;;;;;;17.80;87.39;100922.25;5011785;28;20046;-42
2023/08/20 07:37:23;;;;;;;5.68;1.55;;;;;;;17.82;86.84;100934.69;5011600;28;20104;-42
2023/08/20 07:39:50;;;;;;;6.85;1.20;;;;;;;17.87;86.81;100939.13;5012262;28;20058;-42
2023/08/20 07:42:18;;;;;;;11.00;1.42;;;;;;;17.98;86.55;100935.19;5011346;28;20504;-42
2023/08/20 07:44:44;;;;;;;7.57;1.73;;;;;;;18.16;85.86;100943.72;5011342;28;20045;-44
2023/08/20 07:47:12;;;;;;;7.40;1.67;;;;;;;18.25;85.25;100932.94;5011420;28;20050;-43
2023/08/20 07:49:39;;;;;;;7.13;1.55;;;;;;;18.32;84.79;100937.81;5011980;28;20041;-42
2023/08/20 07:52:06;;;;;;;9.20;1.88;;;;;;;18.40;84.47;100939.44;5002058;28;20047;-43
2023/08/20 07:54:32;;;;;;;7.45;1.70;;;;;;;18.42;84.04;100943.47;5010066;28;20488;-43
2023/08/20 07:56:59;;;;;;;8.50;1.20;;;;;;;18.47;83.22;100954.31;5008886;28;20492;-42
2023/08/20 07:59:26;;;;;;;5.05;1.00;;;;;;;18.51;82.21;100952.31;5008311;28;20050;-42
2023/08/20 08:01:53;;;;;;;7.95;1.20;;;;;;;18.56;82.04;100943.53;5004379;28;20062;-42
2023/08/20 08:04:19;;;;;;;6.35;1.42;;;;;;;18.63;81.21;100954.00;5007633;28;20041;-42
2023/08/20 08:06:46;;;;;;;4.70;1.48;;;;;;;18.66;80.67;100950.41;5010157;28;20073;-42
2023/08/20 08:09:21;;;;;;;11.38;1.95;;;;;;;18.76;81.14;100958.84;5008591;28;20495;-43
2023/08/20 08:11:49;;;;;;;7.80;1.40;;;;;;;18.83;79.70;100958.88;5012100;28;20049;-42
2023/08/20 08:14:16;;;;;;;6.85;1.30;;;;;;;18.88;79.36;100962.50;5012738;28;20046;-44
2023/08/20 08:16:43;;;;;;;4.15;1.77;;;;;;;18.88;78.48;100959.69;5015413;28;20045;-43
2023/08/20 08:19:10;;;;;;;5.18;1.83;;;;;;;18.86;78.42;100957.28;5012412;28;20074;-42
2023/08/20 08:21:39;;;;;;;7.45;1.27;;;;;;;18.87;77.99;100967.31;5016508;28;20112;-42
2023/08/20 08:24:05;;;;;;;5.43;1.33;;;;;;;18.93;78.36;100964.91;5016520;28;20092;-46
2023/08/20 08:26:34;;;;;;;8.90;2.00;;;;;;;19.07;78.37;100962.13;5016251;28;20085;-43
2023/08/20 08:29:01;;;;;;;7.25;1.67;;;;;;;19.27;78.44;100966.97;4993906;28;20050;-42
2023/08/20 08:31:28;;;;;;;8.10;1.50;;;;;;;19.51;78.68;100976.69;5013939;28;20560;-42
2023/08/20 08:33:55;;;;;;;12.40;1.77;;;;;;;19.89;78.65;100981.47;5014833;28;20381;-42
2023/08/20 08:36:24;;;;;;;5.00;1.55;;;;;;;20.38;77.33;100979.81;5016378;28;20092;-42
2023/08/20 08:38:52;;;;;;;6.07;1.67;;;;;;;20.84;75.94;100977.63;5017627;28;20049;-44
2023/08/20 08:41:23;;;;;;;6.07;1.30;;;;;;;21.07;73.95;100972.31;5015663;28;20056;-43
2023/08/20 08:43:50;;;;;;;6.95;2.22;;;;;;;21.00;72.61;100977.13;5012632;28;20042;-43
2023/08/20 08:46:17;;;;;;;8.02;1.73;;;;;;;20.85;71.42;100973.63;5013735;28;20041;-43
2023/08/20 08:48:46;;;;;;;7.20;1.55;;;;;;;21.12;70.65;100969.06;5014989;28;20069;-42
2023/08/20 08:51:13;;;;;;;6.35;1.42;;;;;;;21.47;68.66;100984.13;5005003;28;20049;-42
2023/08/20 08:53:43;;;;;;;6.30;1.58;;;;;;;21.62;67.65;100988.44;5013694;28;20041;-42
2023/08/20 08:56:10;;;;;;;8.63;2.20;;;;;;;21.53;66.92;100985.28;5016279;28;20053;-42
2023/08/20 08:58:37;;;;;;;7.78;1.75;;;;;;;21.52;66.36;100975.25;5013531;28;20045;-43
2023/08/20 09:01:04;;;;;;;9.05;2.22;;;;;;;21.78;65.58;100983.06;5012361;28;20049;-43
2023/08/20 09:03:31;;;;;;;9.95;1.63;;;;;;;21.73;65.38;100967.41;5017806;28;20057;-43
2023/08/20 09:06:03;;;;;;;7.75;2.28;;;;;;;21.96;64.96;100978.09;5017312;28;20208;-43
2023/08/20 09:08:31;;;;;;;10.93;2.10;;;;;;;21.85;64.79;100977.38;5016175;28;20050;-43
2023/08/20 09:10:59;;;;;;;7.38;1.80;;;;;;;21.76;64.51;100982.69;5012506;28;20046;-43
2023/08/20 09:13:33;;;;;;;5.88;1.60;;;;;;;21.45;64.74;100992.16;5016537;28;20038;-44
2023/08/20 09:16:03;;;;;;;11.27;1.92;;;;;;;21.19;64.12;100985.91;4997432;28;20153;-43
2023/08/20 09:18:30;;;;;;;9.80;2.00;;;;;;;21.54;64.35;100986.88;5014660;28;20092;-43
2023/08/20 09:20:59;;;;;;;8.02;1.95;;;;;;;22.18;63.22;100984.34;5011215;28;20472;-43
2023/08/20 09:23:29;;;;;;;11.10;2.25;;;;;;;22.74;61.99;100985.75;4998725;28;20137;-43
2023/08/20 09:25:57;;;;;;;8.32;3.28;;;;;;;23.16;60.73;100984.38;5013585;28;20148;-45
2023/08/20 09:28:23;;;;;;;12.30;2.55;;;;;;;23.61;59.97;100995.03;5013885;28;20034;-43
2023/08/20 09:30:57;;;;;;;8.73;2.05;;;;;;;24.06;59.35;101005.97;5014091;28;20518;-43
2023/08/20 09:33:24;;;;;;;8.75;1.95;;;;;;;24.34;57.75;100999.00;5013852;28;20064;-45
2023/08/20 09:35:53;;;;;;;10.35;2.00;;;;;;;24.61;56.48;100999.69;5013635;28;20553;-43
2023/08/20 09:38:23;;;;;;;5.70;2.03;;;;;;;24.96;55.63;101003.88;5014425;28;20116;-43
2023/08/20 09:40:52;;;;;;;8.07;2.05;;;;;;;25.18;54.41;100985.94;4999188;28;20073;-43
2023/08/20 09:43:23;;;;;;;8.40;1.90;;;;;;;25.34;53.92;100988.00;5014078;28;20077;-43
2023/08/20 09:45:51;;;;;;;7.60;1.73;;;;;;;25.55;53.40;100989.59;5013243;28;20049;-43
2023/08/20 09:48:22;;;;;;;7.07;2.47;;;;;;;25.73;53.33;100985.09;5013150;28;20046;-48
2023/08/20 09:50:51;;;;;;;10.30;2.22;;;;;;;25.78;52.67;100978.88;5013455;28;20056;-43
2023/08/20 09:53:28;;;;;;;9.07;2.17;;;;;;;25.83;52.80;100989.69;5013840;28;20104;-43
2023/08/20 09:55:59;;;;;;;7.70;2.10;;;;;;;26.09;51.30;100987.78;5008061;28;20050;-44
2023/08/20 09:58:26;;;;;;;;;;;;;;;25.90;52.37;100995.16;5013636;28;20050;-44
2023/08/20 10:00:54;;;;;;;7.88;2.40;;;;;;;25.94;50.33;100992.25;5013320;28;19968;-45
2023/08/20 10:03:22;;;;;;;7.97;1.60;;;;;;;25.92;49.75;100989.06;4976528;28;20060;-46
2023/08/20 10:05:50;;;;;;;7.05;1.67;;;;;;;25.89;49.40;100982.22;4974370;28;20109;-39
2023/08/20 10:08:17;;;;;;;6.55;2.50;;;;;;;25.90;49.74;100988.69;4974479;28;20242;-38
2023/08/20 10:10:44;;;;;;;10.02;2.15;;;;;;;25.93;49.16;100985.78;4974264;28;20054;-39
2023/08/20 10:13:13;;;;;;;6.35;1.88;;;;;;;25.84;48.34;100981.97;4986956;28;20042;-38
2023/08/20 10:15:41;;;;;;;12.00;3.35;;;;;;;25.80;48.37;100984.91;4973393;28;20039;-38
2023/08/20 10:18:11;;;;;;;11.93;2.47;;;;;;;25.77;48.44;100993.47;4973807;28;20695;-38
2023/08/20 10:20:40;;;;;;;9.15;2.33;;;;;;;25.76;47.81;100998.34;4974308;28;20531;-39
2023/08/20 10:23:07;;;;;;;7.65;1.67;;;;;;;25.68;48.29;100979.16;4973980;28;20042;-39
2023/08/20 10:25:42;;;;;;;6.68;2.03;;;;;;;25.82;48.03;100993.75;4972615;28;20053;-38
2023/08/20 10:28:18;;;;;;;6.80;2.65;;;;;;;25.74;47.63;100997.19;4973770;28;20054;-37
2023/08/20 10:31:08;;;;;;;6.70;2.15;;;;;;;25.67;47.78;101012.38;4960997;28;20611;-44
2023/08/20 10:33:37;;;;;;;10.25;1.88;;;;;;;25.51;47.75;101020.84;4972695;28;20408;-43
2023/08/20 10:36:15;;;;;;;6.57;1.90;;;;;;;25.35;47.81;101004.59;4975392;28;20073;-44
2023/08/20 10:38:45;;;;;;;5.28;1.65;;;;;;;25.26;47.51;101021.38;4993116;28;20089;-43
2023/08/20 10:41:12;;;;;;;5.45;1.67;;;;;;;24.98;47.64;101026.88;4992876;28;20054;-44
2023/08/20 10:43:46;;;;;;;3.47;1.50;;;;;;;24.64;47.62;101008.13;4993223;28;20050;-43
2023/08/20 10:46:18;;;;;;;4.65;1.50;;;;;;;23.90;48.90;101009.47;5000302;28;20524;-44
2023/08/20 10:48:54;;;;;;;6.95;1.27;;;;;;;23.57;49.96;101013.25;4997254;28;20465;-43
2023/08/20 10:51:37;;;;;;;4.88;1.65;;;;;;;23.43;50.15;101010.66;4993038;28;20459;-44
2023/08/20 10:54:07;;;;;;;6.45;1.40;;;;;;;23.04;50.75;101005.50;4992527;28;20096;-45
2023/08/20 10:56:40;;;;;;;4.65;1.60;;;;;;;22.64;51.89;101012.06;4992941;28;20471;-43
2023/08/20 10:59:13;;;;;;;6.65;1.73;;;;;;;22.40;52.54;101008.25;4990446;28;20077;-44
2023/08/20 11:01:43;;;;;;;4.15;1.42;;;;;;;22.44;53.31;101004.22;4996888;28;20380;-44
2023/08/20 11:04:10;;;;;;;8.20;2.28;;;;;;;22.72;53.35;101005.09;5013086;28;20046;-43
2023/08/20 11:06:39;;;;;;;7.43;1.77;;;;;;;22.87;52.91;101015.84;5012142;28;20145;-43
2023/08/20 11:09:05;;;;;;;4.57;1.15;;;;;;;23.00;53.11;101001.94;5012061;28;20524;-43
2023/08/20 11:11:32;;;;;;;5.50;1.67;;;;;;;23.13;53.34;101005.00;5012021;28;20579;-42
2023/08/20 11:14:07;;;;;;;7.78;1.45;;;;;;;23.22;53.48;101003.22;5012204;28;20084;-43
2023/08/20 11:16:36;;;;;;;8.15;2.08;;;;;;;23.19;53.63;100997.66;5012056;28;20081;-44
2023/08/20 11:19:08;;;;;;;3.78;1.92;;;;;;;23.09;53.56;101007.09;5011994;28;20057;-43
2023/08/20 11:21:35;;;;;;;;;;;;;;;22.98;54.05;101005.19;5012824;28;20042;-45
2023/08/20 11:24:03;;;;;;;4.15;1.13;;;;;;;22.88;53.65;100999.66;5011959;28;19921;-45
2023/08/20 11:26:30;;;;;;;6.40;1.75;;;;;;;22.84;53.71;100996.91;5011792;28;20037;-44
2023/08/20 11:28:57;;;;;;;6.38;1.92;;;;;;;22.81;53.58;100982.81;5012003;28;20112;-43
2023/08/20 11:31:25;;;;;;;7.75;2.13;;;;;;;22.78;53.63;100986.50;5011842;28;20407;-44